createdAt,value
2023-03-03T00:01:06.595Z,59.53
2023-03-03T00:03:34.973Z,56.93
2023-03-03T00:06:05.184Z,56.93
2023-03-03T00:08:33.527Z,55.70
2023-03-03T00:11:03.239Z,56.93
2023-03-03T00:13:33.682Z,57.87
2023-03-03T00:16:16.060Z,55.33
2023-03-03T00:18:46.445Z,56.40
2023-03-03T00:21:29.123Z,56.50
2023-03-03T00:24:12.499Z,54.03
2023-03-03T00:26:41.644Z,56.27
2023-03-03T00:29:39.192Z,52.03
2023-03-03T00:32:26.228Z,53.33
2023-03-03T00:34:55.990Z,52.23
2023-03-03T00:37:42.311Z,51.63
2023-03-03T00:40:23.972Z,52.70
2023-03-03T00:42:54.530Z,50.10
2023-03-03T00:45:31.295Z,53.20
2023-03-03T00:48:02.642Z,51.70
2023-03-03T00:50:35.787Z,47.77
2023-03-03T00:53:07.073Z,51.10
2023-03-03T00:55:36.674Z,50.57
2023-03-03T00:58:05.361Z,49.57
2023-03-03T01:00:35.208Z,54.83
2023-03-03T01:03:05.598Z,49.93
2023-03-03T01:05:34.626Z,51.43
2023-03-03T01:08:03.267Z,58.10
2023-03-03T01:10:35.124Z,58.43
2023-03-03T01:13:05.038Z,50.97
2023-03-03T01:15:34.498Z,54.10
2023-03-03T01:18:02.612Z,52.30
2023-03-03T01:20:30.656Z,47.90
2023-03-03T01:22:58.632Z,47.97
2023-03-03T01:25:26.603Z,49.67
2023-03-03T01:27:54.602Z,49.80
2023-03-03T01:30:22.697Z,48.83
2023-03-03T01:32:52.370Z,48.93
2023-03-03T01:35:21.042Z,56.53
2023-03-03T01:37:49.056Z,58.63
2023-03-03T01:40:20.697Z,63.87
2023-03-03T01:42:48.732Z,66.50
2023-03-03T01:45:20.467Z,65.43
2023-03-03T01:48:01.053Z,64.90
2023-03-03T01:50:42.925Z,65.40
2023-03-03T01:53:16.022Z,65.87
2023-03-03T01:55:44.997Z,62.40
2023-03-03T01:58:17.050Z,64.03
2023-03-03T02:00:51.986Z,61.10
2023-03-03T02:03:23.194Z,58.87
2023-03-03T02:05:54.288Z,61.00
2023-03-03T02:08:27.214Z,60.03
2023-03-03T02:10:55.694Z,56.57
2023-03-03T02:13:23.645Z,55.87
2023-03-03T02:15:51.656Z,50.17
2023-03-03T02:18:22.173Z,48.17
2023-03-03T02:20:58.568Z,46.70
2023-03-03T02:23:33.815Z,51.83
2023-03-03T02:26:09.015Z,52.53
2023-03-03T02:28:38.640Z,48.27
2023-03-03T02:31:10.782Z,53.87
2023-03-03T02:33:38.834Z,53.40
2023-03-03T02:36:07.393Z,53.97
2023-03-03T02:38:42.149Z,52.90
2023-03-03T02:41:17.697Z,56.87
2023-03-03T02:43:52.166Z,56.73
2023-03-03T02:46:20.304Z,61.00
2023-03-03T02:48:48.327Z,59.83
2023-03-03T02:51:16.403Z,55.73
2023-03-03T02:53:44.448Z,50.57
2023-03-03T02:56:13.767Z,52.07
2023-03-03T02:58:42.081Z,51.83
2023-03-03T03:01:10.101Z,50.37
2023-03-03T03:03:38.552Z,52.03
2023-03-03T03:06:09.671Z,52.50
2023-03-03T03:08:37.699Z,51.37
2023-03-03T03:11:06.851Z,48.50
2023-03-03T03:13:36.356Z,51.93
2023-03-03T03:16:04.585Z,53.40
2023-03-03T03:18:32.861Z,51.37
2023-03-03T03:21:08.546Z,48.40
2023-03-03T03:23:37.095Z,51.33
2023-03-03T03:26:06.520Z,50.57
2023-03-03T03:28:36.270Z,57.73
2023-03-03T03:31:06.233Z,54.17
2023-03-03T03:33:34.526Z,61.83
2023-03-03T03:36:05.946Z,63.70
2023-03-03T03:38:34.618Z,65.47
2023-03-03T03:41:02.573Z,59.53
2023-03-03T03:43:30.938Z,62.10
2023-03-03T03:46:00.296Z,57.93
2023-03-03T03:48:28.422Z,64.80
2023-03-03T03:50:56.427Z,70.60
2023-03-03T03:53:24.420Z,71.93
2023-03-03T03:55:52.436Z,72.00
2023-03-03T03:58:20.945Z,75.27
2023-03-03T04:00:49.284Z,82.67
2023-03-03T04:03:18.746Z,84.17
2023-03-03T04:05:46.865Z,84.30
2023-03-03T04:08:14.904Z,87.43
2023-03-03T04:10:42.888Z,80.80
2023-03-03T04:13:10.840Z,80.63
2023-03-03T04:15:38.933Z,77.17
2023-03-03T04:18:07.608Z,76.40
2023-03-03T04:20:36.940Z,77.70
2023-03-03T04:23:04.931Z,68.57
2023-03-03T04:25:32.917Z,70.43
2023-03-03T04:28:00.865Z,66.60
2023-03-03T04:30:28.923Z,66.80
2023-03-03T04:32:56.903Z,63.80
2023-03-03T04:35:25.055Z,69.47
2023-03-03T04:37:54.681Z,64.53
2023-03-03T04:40:22.668Z,66.10
2023-03-03T04:42:50.760Z,62.40
2023-03-03T04:45:19.189Z,57.27
2023-03-03T04:47:47.159Z,54.67
2023-03-03T04:50:15.187Z,52.27
2023-03-03T04:52:43.183Z,52.97
2023-03-03T04:55:14.084Z,49.90
2023-03-03T04:57:42.048Z,52.97
2023-03-03T05:00:13.057Z,62.97
2023-03-03T05:02:41.173Z,54.93
2023-03-03T05:05:10.604Z,60.57
2023-03-03T05:07:38.586Z,59.23
2023-03-03T05:10:07.737Z,59.73
2023-03-03T05:12:37.376Z,60.50
2023-03-03T05:15:06.228Z,57.53
2023-03-03T05:17:34.224Z,63.07
2023-03-03T05:20:05.508Z,62.40
2023-03-03T05:22:33.502Z,62.90
2023-03-03T05:25:01.598Z,72.07
2023-03-03T05:27:29.591Z,65.63
2023-03-03T05:29:58.940Z,66.53
2023-03-03T05:32:27.059Z,66.27
2023-03-03T05:34:55.077Z,68.97
2023-03-03T05:37:24.400Z,71.07
2023-03-03T05:39:52.534Z,82.47
2023-03-03T05:42:20.625Z,73.70
2023-03-03T05:44:48.821Z,78.07
2023-03-03T05:47:18.155Z,78.17
2023-03-03T05:49:46.243Z,75.83
2023-03-03T05:52:14.421Z,81.03
2023-03-03T05:54:42.402Z,91.30
2023-03-03T05:57:10.568Z,80.53
2023-03-03T05:59:38.669Z,81.33
2023-03-03T06:02:06.704Z,70.93
2023-03-03T06:04:36.333Z,71.73
2023-03-03T06:07:04.640Z,71.37
2023-03-03T06:09:33.348Z,71.03
2023-03-03T06:12:01.329Z,71.27
2023-03-03T06:14:29.288Z,69.47
2023-03-03T06:16:57.856Z,65.00
2023-03-03T06:19:25.986Z,65.60
2023-03-03T06:21:55.426Z,68.53
2023-03-03T06:24:25.339Z,70.20
2023-03-03T06:26:53.408Z,66.60
2023-03-03T06:29:21.390Z,66.83
2023-03-03T06:31:49.479Z,67.47
2023-03-03T06:34:17.502Z,66.47
2023-03-03T06:36:45.503Z,64.87
2023-03-03T06:39:14.841Z,66.43
2023-03-03T06:41:42.805Z,77.47
2023-03-03T06:44:11.817Z,73.20
2023-03-03T06:46:39.883Z,80.27
2023-03-03T06:49:07.836Z,81.80
2023-03-03T06:51:39.717Z,91.53
2023-03-03T06:54:15.024Z,82.00
2023-03-03T06:56:43.890Z,84.23
2023-03-03T06:59:14.971Z,88.70
2023-03-03T07:01:44.385Z,84.00
2023-03-03T07:04:23.372Z,83.20
2023-03-03T07:06:51.408Z,86.63
2023-03-03T07:09:25.109Z,84.47
2023-03-03T07:11:53.701Z,92.53
2023-03-03T07:14:23.135Z,82.00
2023-03-03T07:16:57.691Z,88.47
2023-03-03T07:19:34.057Z,86.37
2023-03-03T07:22:12.523Z,88.63
2023-03-03T07:24:42.522Z,83.47
2023-03-03T07:27:14.778Z,79.60
2023-03-03T07:29:43.071Z,81.07
2023-03-03T07:32:27.165Z,81.13
2023-03-03T07:34:57.094Z,85.03
2023-03-03T07:37:32.565Z,84.17
2023-03-03T07:40:02.215Z,80.23
2023-03-03T07:42:40.022Z,80.93
2023-03-03T07:45:26.016Z,80.57
2023-03-03T07:48:00.877Z,81.13
2023-03-03T07:50:28.923Z,78.63
2023-03-03T07:53:00.068Z,76.13
2023-03-03T07:55:35.558Z,81.77
2023-03-03T07:58:21.951Z,75.17
2023-03-03T08:01:29.142Z,79.33
2023-03-03T08:03:58.354Z,77.77
2023-03-03T08:06:53.070Z,70.13
2023-03-03T08:09:38.999Z,76.67
2023-03-03T08:12:42.868Z,75.40
2023-03-03T08:15:23.783Z,76.57
2023-03-03T08:17:53.785Z,75.67
2023-03-03T08:20:47.332Z,75.50
2023-03-03T08:23:17.141Z,75.27
2023-03-03T08:25:46.872Z,77.67
2023-03-03T08:28:16.895Z,79.10
2023-03-03T08:30:45.837Z,73.53
2023-03-03T08:33:14.840Z,74.43
2023-03-03T08:35:43.589Z,72.63
2023-03-03T08:38:12.551Z,68.70
2023-03-03T08:40:40.644Z,65.40
2023-03-03T08:43:11.304Z,67.77
2023-03-03T08:45:40.916Z,68.97
2023-03-03T08:48:08.991Z,68.57
2023-03-03T08:50:38.087Z,66.83
2023-03-03T08:53:06.570Z,64.93
2023-03-03T08:55:34.628Z,65.60
2023-03-03T08:58:02.633Z,65.77
2023-03-03T09:00:32.956Z,66.33
2023-03-03T09:03:07.052Z,66.70
2023-03-03T09:05:36.374Z,69.70
2023-03-03T09:08:04.736Z,68.20
2023-03-03T09:10:33.025Z,67.90
2023-03-03T09:13:05.958Z,62.50
2023-03-03T09:15:35.762Z,65.50
2023-03-03T09:18:16.008Z,69.90
2023-03-03T09:20:46.549Z,67.63
2023-03-03T09:23:34.762Z,72.70
2023-03-03T09:26:28.033Z,74.67
2023-03-03T09:28:59.620Z,72.27
2023-03-03T09:31:32.507Z,70.80
2023-03-03T09:34:02.833Z,72.53
2023-03-03T09:36:38.861Z,75.90
2023-03-03T09:39:18.350Z,79.53
2023-03-03T09:42:18.610Z,77.77
2023-03-03T09:45:12.003Z,83.37
2023-03-03T09:47:54.281Z,84.50
2023-03-03T09:50:31.112Z,89.77
2023-03-03T09:53:15.767Z,83.40
2023-03-03T09:55:51.690Z,84.77
2023-03-03T09:58:49.320Z,88.53
2023-03-03T10:01:38.155Z,78.20
2023-03-03T10:04:21.163Z,73.87
2023-03-03T10:06:57.519Z,76.17
2023-03-03T10:09:47.772Z,81.17
2023-03-03T10:12:22.498Z,78.47
2023-03-03T10:15:09.764Z,77.10
2023-03-03T10:17:50.739Z,82.03
2023-03-03T10:20:40.478Z,88.60
2023-03-03T10:23:22.705Z,88.87
2023-03-03T10:25:57.864Z,92.03
2023-03-03T10:29:03.716Z,89.70
2023-03-03T10:31:48.602Z,88.37
2023-03-03T10:34:30.834Z,93.20
2023-03-03T10:37:07.152Z,87.03
2023-03-03T10:39:54.328Z,92.03
2023-03-03T10:42:43.443Z,91.00
2023-03-03T10:45:31.349Z,93.87
2023-03-03T10:48:33.725Z,98.07
2023-03-03T10:51:09.834Z,101.63
2023-03-03T10:53:47.720Z,92.27
2023-03-03T10:56:32.169Z,91.93
2023-03-03T10:59:14.446Z,83.97
2023-03-03T11:01:52.916Z,76.40
2023-03-03T11:04:50.445Z,76.03
2023-03-03T11:07:22.949Z,63.40
2023-03-03T11:10:02.624Z,59.53
2023-03-03T11:12:47.246Z,59.90
2023-03-03T11:15:32.578Z,55.93
2023-03-03T11:18:27.130Z,58.13
2023-03-03T11:21:05.608Z,52.40
2023-03-03T11:24:02.595Z,56.67
2023-03-03T11:26:51.187Z,54.90
2023-03-03T11:29:41.789Z,54.70
2023-03-03T11:32:22.669Z,54.70
2023-03-03T11:34:59.514Z,56.17
2023-03-03T11:37:36.624Z,57.83
2023-03-03T11:40:13.721Z,61.63
2023-03-03T11:43:02.684Z,62.00
2023-03-03T11:45:40.246Z,60.97
2023-03-03T11:48:17.991Z,58.50
2023-03-03T11:50:56.369Z,54.33
2023-03-03T11:53:32.906Z,54.67
2023-03-03T11:56:11.582Z,55.37
2023-03-03T11:58:46.176Z,60.17
2023-03-03T12:01:23.547Z,56.93
2023-03-03T12:03:57.642Z,54.27
2023-03-03T12:06:40.678Z,57.33
2023-03-03T12:09:24.483Z,61.27
2023-03-03T12:11:56.280Z,57.73
2023-03-03T12:14:47.632Z,62.33
2023-03-03T12:17:34.358Z,62.73
2023-03-03T12:20:09.107Z,58.80
2023-03-03T12:22:43.506Z,59.70
2023-03-03T12:25:24.162Z,54.60
2023-03-03T12:27:59.584Z,60.10
2023-03-03T12:31:01.638Z,59.30
2023-03-03T12:33:52.931Z,60.70
2023-03-03T12:36:48.547Z,59.13
2023-03-03T12:39:34.963Z,57.30
2023-03-03T12:42:11.360Z,49.90
2023-03-03T12:44:45.381Z,49.73
2023-03-03T12:47:22.280Z,50.60
2023-03-03T12:50:08.102Z,52.33
2023-03-03T12:52:49.047Z,51.57
2023-03-03T12:55:26.043Z,47.70
2023-03-03T12:58:02.148Z,48.47
2023-03-03T13:00:39.515Z,49.27
2023-03-03T13:03:16.647Z,44.73
2023-03-03T13:05:55.534Z,53.50
2023-03-03T13:08:50.116Z,47.07
2023-03-03T13:11:35.315Z,44.83
2023-03-03T13:14:13.150Z,44.83
2023-03-03T13:16:46.410Z,43.67
2023-03-03T13:19:18.238Z,44.30
2023-03-03T13:21:54.537Z,48.80
2023-03-03T13:24:29.322Z,40.60
2023-03-03T13:27:02.334Z,45.23
2023-03-03T13:29:38.613Z,40.37
2023-03-03T13:32:15.741Z,44.67
2023-03-03T13:34:52.594Z,40.57
2023-03-03T13:37:24.970Z,45.40
2023-03-03T13:39:58.925Z,42.10
2023-03-03T13:42:34.607Z,39.23
2023-03-03T13:45:08.118Z,41.23
2023-03-03T13:47:42.344Z,39.90
2023-03-03T13:50:23.830Z,43.77
2023-03-03T13:53:10.688Z,38.87
2023-03-03T13:55:43.899Z,42.47
2023-03-03T13:58:23.254Z,38.77
2023-03-03T14:00:58.913Z,41.17
2023-03-03T14:03:52.880Z,42.43
2023-03-03T14:06:24.624Z,40.20
2023-03-03T14:09:21.137Z,38.27
2023-03-03T14:11:57.645Z,39.43
2023-03-03T14:14:37.506Z,37.07
2023-03-03T14:17:13.686Z,39.07
2023-03-03T14:19:45.596Z,39.67
2023-03-03T14:22:24.557Z,38.10
2023-03-03T14:25:02.946Z,34.53
2023-03-03T14:27:36.785Z,36.27
2023-03-03T14:30:32.820Z,36.83
2023-03-03T14:33:16.740Z,37.97
2023-03-03T14:35:50.994Z,39.40
2023-03-03T14:38:21.327Z,39.53
2023-03-03T14:41:12.362Z,40.53
2023-03-03T14:43:41.996Z,41.07
2023-03-03T14:46:33.362Z,38.57
2023-03-03T14:49:03.143Z,37.93
2023-03-03T14:51:35.945Z,38.10
2023-03-03T14:54:10.410Z,42.53
2023-03-03T14:56:55.207Z,39.73
2023-03-03T14:59:26.709Z,40.37
2023-03-03T15:02:02.897Z,41.37
2023-03-03T15:04:32.038Z,43.90
2023-03-03T15:07:00.102Z,42.53
2023-03-03T15:09:36.675Z,44.87
2023-03-03T15:12:20.733Z,44.30
2023-03-03T15:14:50.486Z,43.30
2023-03-03T15:17:27.900Z,41.17
2023-03-03T15:20:22.579Z,40.10
2023-03-03T15:22:53.325Z,41.03
2023-03-03T15:25:43.002Z,42.83
2023-03-03T15:28:31.403Z,41.30
2023-03-03T15:31:05.285Z,37.13
2023-03-03T15:33:41.120Z,42.77
2023-03-03T15:36:15.892Z,47.70
2023-03-03T15:38:55.570Z,43.93
2023-03-03T15:41:43.526Z,45.53
2023-03-03T15:44:19.145Z,43.47
2023-03-03T15:47:00.481Z,50.20
2023-03-03T15:49:54.121Z,42.27
2023-03-03T15:52:36.268Z,42.10
2023-03-03T15:55:19.482Z,37.63
2023-03-03T15:58:02.469Z,36.17
2023-03-03T16:00:43.682Z,35.17
2023-03-03T16:03:15.347Z,38.30
2023-03-03T16:05:53.444Z,37.90
2023-03-03T16:08:27.050Z,37.67
2023-03-03T16:11:05.575Z,35.40
2023-03-03T16:13:54.254Z,38.03
2023-03-03T16:16:36.241Z,32.23
2023-03-03T16:19:27.616Z,35.23
2023-03-03T16:22:12.290Z,34.80
2023-03-03T16:24:51.583Z,33.47
2023-03-03T16:27:24.708Z,33.07
2023-03-03T16:30:07.171Z,34.10
2023-03-03T16:32:41.979Z,30.83
2023-03-03T16:35:21.539Z,40.57
2023-03-03T16:37:58.462Z,43.70
2023-03-03T16:40:31.311Z,42.57
2023-03-03T16:43:09.247Z,48.73
2023-03-03T16:45:39.899Z,42.77
2023-03-03T16:48:20.396Z,40.77
2023-03-03T16:50:56.380Z,33.87
2023-03-03T16:53:42.815Z,33.63
2023-03-03T16:56:19.254Z,33.00
2023-03-03T16:58:56.908Z,33.57
2023-03-03T17:01:33.182Z,35.23
2023-03-03T17:04:04.330Z,35.90
2023-03-03T17:06:43.177Z,36.57
2023-03-03T17:09:40.009Z,38.07
2023-03-03T17:12:45.619Z,35.83
2023-03-03T17:15:23.355Z,40.50
2023-03-03T17:18:00.743Z,45.63
2023-03-03T17:20:40.080Z,50.43
2023-03-03T17:23:33.317Z,56.33
2023-03-03T17:26:13.469Z,50.47
2023-03-03T17:28:49.787Z,54.80
2023-03-03T17:31:26.908Z,55.17
2023-03-03T17:34:08.226Z,53.70
2023-03-03T17:36:56.388Z,52.33
2023-03-03T17:39:46.110Z,57.97
2023-03-03T17:42:19.588Z,55.07
2023-03-03T17:44:58.216Z,55.40
2023-03-03T17:47:41.592Z,52.77
2023-03-03T17:50:23.530Z,52.93
2023-03-03T17:53:12.420Z,45.90
2023-03-03T17:55:56.610Z,50.30
2023-03-03T17:58:47.361Z,49.47
2023-03-03T18:01:25.752Z,48.27
2023-03-03T18:04:25.007Z,48.33
2023-03-03T18:07:22.530Z,48.37
2023-03-03T18:10:15.093Z,46.83
2023-03-03T18:12:54.481Z,49.57
2023-03-03T18:15:39.194Z,48.50
2023-03-03T18:18:20.733Z,51.30
2023-03-03T18:21:00.400Z,47.17
2023-03-03T18:23:42.018Z,47.87
2023-03-03T18:26:37.385Z,48.50
2023-03-03T18:29:22.314Z,46.83
2023-03-03T18:32:20.528Z,46.77
2023-03-03T18:34:48.608Z,52.47
2023-03-03T18:37:40.672Z,57.93
2023-03-03T18:40:33.466Z,56.80
2023-03-03T18:43:42.414Z,57.03
2023-03-03T18:46:13.316Z,52.57
2023-03-03T18:48:50.314Z,53.70
2023-03-03T18:51:51.788Z,52.30
2023-03-03T18:54:31.097Z,56.17
2023-03-03T18:57:19.606Z,57.07
2023-03-03T19:00:02.354Z,56.33
2023-03-03T19:02:37.910Z,53.37
2023-03-03T19:05:30.401Z,52.63
2023-03-03T19:08:00.457Z,55.83
2023-03-03T19:10:52.965Z,56.67
2023-03-03T19:14:12.776Z,52.63
2023-03-03T19:16:42.476Z,49.70
2023-03-03T19:19:17.519Z,51.83
2023-03-03T19:21:51.123Z,51.73
2023-03-03T19:24:33.778Z,51.40
2023-03-03T19:27:24.720Z,44.93
2023-03-03T19:30:34.904Z,46.30
2023-03-03T19:33:31.272Z,50.43
2023-03-03T19:36:19.186Z,47.23
2023-03-03T19:39:08.553Z,47.07
2023-03-03T19:41:55.310Z,51.77
2023-03-03T19:44:55.881Z,48.77
2023-03-03T19:47:42.857Z,47.17
2023-03-03T19:50:27.925Z,52.33
2023-03-03T19:53:06.056Z,47.50
2023-03-03T19:55:44.338Z,46.83
2023-03-03T19:58:23.909Z,45.63
2023-03-03T20:01:02.521Z,45.57
2023-03-03T20:03:53.548Z,47.87
2023-03-03T20:06:33.225Z,51.33
2023-03-03T20:09:04.700Z,46.53
2023-03-03T20:12:06.509Z,56.43
2023-03-03T20:14:46.132Z,52.03
2023-03-03T20:17:38.820Z,53.43
2023-03-03T20:20:21.767Z,51.07
2023-03-03T20:22:59.621Z,48.93
2023-03-03T20:25:35.649Z,50.60
2023-03-03T20:28:15.022Z,50.40
2023-03-03T20:30:59.747Z,47.73
2023-03-03T20:33:51.102Z,49.43
2023-03-03T20:36:29.131Z,50.23
2023-03-03T20:39:10.485Z,49.50
2023-03-03T20:41:58.686Z,50.20
2023-03-03T20:44:44.529Z,51.60
2023-03-03T20:47:25.577Z,53.67
2023-03-03T20:50:15.418Z,53.03
2023-03-03T20:52:53.007Z,51.20
2023-03-03T20:55:30.353Z,55.83
2023-03-03T20:58:05.691Z,50.20
2023-03-03T21:00:40.710Z,54.00
2023-03-03T21:03:19.735Z,56.03
2023-03-03T21:06:03.419Z,56.97
2023-03-03T21:08:55.438Z,55.90
2023-03-03T21:11:40.999Z,57.03
2023-03-03T21:14:19.110Z,53.93
2023-03-03T21:16:50.846Z,53.50
2023-03-03T21:19:30.695Z,55.57
2023-03-03T21:22:01.839Z,57.57
2023-03-03T21:24:49.009Z,52.67
2023-03-03T21:27:36.990Z,53.50
2023-03-03T21:30:08.238Z,60.77
2023-03-03T21:32:38.890Z,58.73
2023-03-03T21:35:10.662Z,59.03
2023-03-03T21:37:47.677Z,58.60
2023-03-03T21:40:20.797Z,62.63
2023-03-03T21:42:50.744Z,59.20
2023-03-03T21:45:20.493Z,61.57
2023-03-03T21:47:50.253Z,60.13
2023-03-03T21:50:20.258Z,66.37
2023-03-03T21:52:50.162Z,64.80
2023-03-03T21:55:18.304Z,69.13
2023-03-03T21:57:46.386Z,70.67
2023-03-03T22:00:17.188Z,62.90
2023-03-03T22:02:45.391Z,68.60
2023-03-03T22:05:13.384Z,67.97
2023-03-03T22:07:41.371Z,62.90
2023-03-03T22:10:10.518Z,65.20
2023-03-03T22:12:38.500Z,65.97
2023-03-03T22:15:09.705Z,67.53
2023-03-03T22:17:40.695Z,67.07
2023-03-03T22:20:14.656Z,67.53
2023-03-03T22:22:42.698Z,69.23
2023-03-03T22:25:11.552Z,71.53
2023-03-03T22:27:39.581Z,65.60
2023-03-03T22:30:09.150Z,70.87
2023-03-03T22:32:38.509Z,70.40
2023-03-03T22:35:10.292Z,76.03
2023-03-03T22:37:38.330Z,73.27
2023-03-03T22:40:07.260Z,74.00
2023-03-03T22:42:35.221Z,80.03
2023-03-03T22:45:03.327Z,73.00
2023-03-03T22:47:32.589Z,77.57
2023-03-03T22:50:01.924Z,69.47
2023-03-03T22:52:32.106Z,76.67
2023-03-03T22:55:00.133Z,78.03
2023-03-03T22:57:28.095Z,74.97
2023-03-03T22:59:56.071Z,78.90
2023-03-03T23:02:24.130Z,77.97
2023-03-03T23:04:58.077Z,83.63
2023-03-03T23:07:28.043Z,83.47
2023-03-03T23:09:56.135Z,86.13
2023-03-03T23:12:24.631Z,84.10
2023-03-03T23:14:52.615Z,82.47
2023-03-03T23:17:20.637Z,78.80
2023-03-03T23:19:50.520Z,76.97
2023-03-03T23:22:18.751Z,72.90
2023-03-03T23:24:48.100Z,79.80
2023-03-03T23:27:16.063Z,73.10
2023-03-03T23:29:44.049Z,72.27
2023-03-03T23:32:14.732Z,72.27
2023-03-03T23:34:42.732Z,72.10
2023-03-03T23:37:10.695Z,68.17
2023-03-03T23:39:40.512Z,67.30
2023-03-03T23:42:09.924Z,67.33
2023-03-03T23:44:38.590Z,64.43
2023-03-03T23:47:06.951Z,57.63
2023-03-03T23:49:35.506Z,61.87
2023-03-03T23:52:03.552Z,59.13
2023-03-03T23:54:31.588Z,59.77
2023-03-03T23:56:59.670Z,59.03
2023-03-03T23:59:29.013Z,63.87
